Time;durP1;ratioP1;P1;durP2;ratioP2;P2;SDS_P1;SDS_P2;PMS_P1;PMS_P2;Temp;Humidity;BMP_temperature;BMP_pressure;BME280_temperature;BME280_humidity;BME280_pressure;Samples;Min_cycle;Max_cycle;Signal;HPM_P1;HPM_P2
2022/10/02 00:02:11;;;;;;;;;0.00;0.00;;;;;;;;4985360;28;28619;-94
2022/10/02 00:04:40;;;;;;;;;0.00;0.00;;;;;;;;4993884;28;28800;-95
2022/10/02 00:07:08;;;;;;;;;0.00;0.00;;;;;;;;4994628;28;29870;-95
2022/10/02 00:09:54;;;;;;;;;0.00;0.00;;;;;;;;4995331;28;28302;-95
2022/10/02 00:12:22;;;;;;;;;0.00;0.00;;;;;;;;5009996;28;27869;-95
2022/10/02 00:14:51;;;;;;;;;0.00;0.00;;;;;;;;4993542;28;27885;-96
2022/10/02 00:17:38;;;;;;;;;;;;;;;;;;;;;
2022/10/02 00:20:10;;;;;;;;;0.00;0.00;;;;;;;;4993645;28;55540;-95
2022/10/02 00:22:38;;;;;;;;;0.00;0.00;;;;;;;;4994154;28;28391;-95
2022/10/02 00:25:25;;;;;;;;;0.00;0.00;;;;;;;;4994563;28;28694;-95
2022/10/02 00:28:26;;;;;;;;;0.00;0.00;;;;;;;;4994121;28;30034;-95
2022/10/02 00:30:56;;;;;;;;;0.00;0.00;;;;;;;;4971136;28;29001;-95
2022/10/02 00:33:31;;;;;;;;;0.00;0.00;;;;;;;;4993887;28;28462;-95
2022/10/02 00:36:07;;;;;;;;;0.00;0.00;;;;;;;;4994386;28;28668;-96
2022/10/02 00:38:48;;;;;;;;;0.00;0.00;;;;;;;;4993478;28;28800;-96
2022/10/02 00:41:28;;;;;;;;;0.00;0.00;;;;;;;;4998678;28;28709;-95
2022/10/02 00:44:10;;;;;;;;;0.00;0.00;;;;;;;;4997078;28;27929;-95
2022/10/02 00:46:41;;;;;;;;;0.00;0.00;;;;;;;;4979257;28;28347;-95
2022/10/02 00:49:20;;;;;;;;;0.00;0.00;;;;;;;;4974697;28;30033;-96
2022/10/02 00:51:59;;;;;;;;;0.00;0.00;;;;;;;;4977025;28;28711;-94
2022/10/02 00:54:47;;;;;;;;;0.00;0.00;;;;;;;;5010321;28;27910;-94
2022/10/02 00:57:16;;;;;;;;;0.00;0.00;;;;;;;;4983254;28;28337;-95
2022/10/02 00:59:56;;;;;;;;;0.00;0.00;;;;;;;;4993777;28;29825;-95
2022/10/02 01:02:24;;;;;;;;;0.00;0.00;;;;;;;;4985615;28;28675;-95
2022/10/02 01:04:53;;;;;;;;;0.00;0.00;;;;;;;;4974242;28;28450;-96
2022/10/02 01:07:31;;;;;;;;;0.00;0.00;;;;;;;;4983015;28;28500;-96
2022/10/02 01:10:03;;;;;;;;;0.00;0.00;;;;;;;;5006515;28;30813;-95
2022/10/02 01:12:28;;;;;;;;;0.00;0.00;;;;;;;;4973635;28;28677;-95
2022/10/02 01:14:53;;;;;;;;;0.00;0.00;;;;;;;;4993466;28;28515;-94
2022/10/02 01:17:30;;;;;;;;;0.00;0.00;;;;;;;;4992572;28;29311;-95
2022/10/02 01:19:58;;;;;;;;;0.00;0.00;;;;;;;;4992095;28;31440;-95
2022/10/02 01:22:46;;;;;;;;;0.00;0.00;;;;;;;;4992433;28;29253;-95
2022/10/02 06:37:13;;;;;;;;;0.00;0.00;;;;;;;;5767662;22;11561;-93
2022/10/02 06:39:57;;;;;;;;;0.00;0.00;;;;;;;;5021765;28;11575;-91
2022/10/02 06:42:41;;;;;;;;;0.00;0.00;;;;;;;;5034200;28;11628;-91
2022/10/02 06:45:25;;;;;;;;;0.00;0.00;;;;;;;;5002230;28;11519;-93
2022/10/02 06:48:22;;;;;;;;;0.00;0.00;;;;;;;;5011358;28;11491;-92
2022/10/02 06:51:07;;;;;;;;;0.00;0.00;;;;;;;;5030546;28;11522;-93
2022/10/02 06:53:40;;;;;;;;;0.00;0.00;;;;;;;;5030426;28;11538;-92
2022/10/02 06:56:25;;;;;;;;;0.00;0.00;;;;;;;;5027898;28;11507;-93
2022/10/02 06:59:01;;;;;;;;;0.00;0.00;;;;;;;;5021841;28;11539;-95
2022/10/02 07:01:38;;;;;;;;;0.00;0.00;;;;;;;;5011821;28;11643;-93
2022/10/02 07:04:23;;;;;;;;;0.00;0.00;;;;;;;;5013982;28;11634;-92
2022/10/02 07:06:49;;;;;;;;;0.00;0.00;;;;;;;;5030515;28;11483;-91
2022/10/02 07:09:14;;;;;;;;;0.00;0.00;;;;;;;;5019465;28;11601;-95
2022/10/02 07:11:42;;;;;;;;;0.00;0.00;;;;;;;;5032592;28;8835;-96
2022/10/02 07:14:16;;;;;;;;;0.00;0.00;;;;;;;;5006652;28;8920;-94
2022/10/02 07:17:00;;;;;;;;;0.00;0.00;;;;;;;;5012634;28;11516;-96
2022/10/02 07:19:31;;;;;;;;;0.00;0.00;;;;;;;;5008539;28;11452;-95
2022/10/02 07:21:59;;;;;;;;;0.00;0.00;;;;;;;;5008721;28;11508;-92
2022/10/02 07:25:00;;;;;;;;;0.00;0.00;;;;;;;;5010491;28;11516;-91
2022/10/02 07:27:49;;;;;;;;;0.00;0.00;;;;;;;;4968340;28;11549;-94
2022/10/02 07:30:16;;;;;;;;;0.00;0.00;;;;;;;;4956467;28;11561;-90
2022/10/02 07:33:00;;;;;;;;;0.00;0.00;;;;;;;;4946696;28;12931;-90
2022/10/02 07:35:26;;;;;;;;;0.00;0.00;;;;;;;;4956191;28;11652;-88
2022/10/02 07:38:09;;;;;;;;;0.00;0.00;;;;;;;;4955149;28;11572;-90
2022/10/02 07:40:37;;;;;;;;;0.00;0.00;;;;;;;;4966719;28;8997;-91
2022/10/02 07:43:14;;;;;;;;;0.00;0.00;;;;;;;;4968683;28;11560;-91
2022/10/02 07:45:42;;;;;;;;;0.00;0.00;;;;;;;;4951408;28;11569;-90
2022/10/02 07:48:25;;;;;;;;;0.00;0.00;;;;;;;;4937711;28;11562;-90
2022/10/02 07:50:50;;;;;;;;;0.00;0.00;;;;;;;;4972686;28;11548;-90
2022/10/02 07:53:23;;;;;;;;;0.00;0.00;;;;;;;;4972198;28;11557;-89
2022/10/02 07:55:51;;;;;;;;;0.00;0.00;;;;;;;;4938370;28;9675;-89
2022/10/02 07:58:30;;;;;;;;;0.00;0.00;;;;;;;;4945853;28;11560;-89
2022/10/02 08:01:07;;;;;;;;;0.00;0.00;;;;;;;;4983481;28;11535;-91
2022/10/02 08:03:32;;;;;;;;;0.00;0.00;;;;;;;;5032409;28;11526;-89
2022/10/02 08:05:58;;;;;;;;;0.00;0.00;;;;;;;;5009751;28;11563;-90
2022/10/02 08:08:27;;;;;;;;;0.00;0.00;;;;;;;;5013812;28;10437;-90
2022/10/02 08:11:01;;;;;;;;;0.00;0.00;;;;;;;;5013004;28;12324;-88
2022/10/02 08:13:32;;;;;;;;;0.00;0.00;;;;;;;;5004254;28;11520;-92
2022/10/02 08:15:58;;;;;;;;;0.00;0.00;;;;;;;;5010171;28;11515;-91
2022/10/02 08:18:31;;;;;;;;;0.00;0.00;;;;;;;;5020669;28;11498;-90
2022/10/02 08:20:58;;;;;;;;;0.00;0.00;;;;;;;;5004021;28;11515;-90
2022/10/02 08:23:26;;;;;;;;;0.00;0.00;;;;;;;;5005922;28;11580;-90
2022/10/02 08:25:57;;;;;;;;;0.00;0.00;;;;;;;;5005873;28;11594;-91
2022/10/02 08:28:39;;;;;;;;;0.00;0.00;;;;;;;;5020978;28;11538;-91
2022/10/02 08:31:07;;;;;;;;;0.00;0.00;;;;;;;;5023392;28;11542;-91
2022/10/02 08:33:33;;;;;;;;;0.00;0.00;;;;;;;;5026159;28;12376;-90
2022/10/02 08:36:17;;;;;;;;;0.00;0.00;;;;;;;;5003700;28;11531;-91
2022/10/02 08:38:52;;;;;;;;;0.00;0.00;;;;;;;;5025074;28;8927;-90
2022/10/02 08:41:21;;;;;;;;;0.00;0.00;;;;;;;;5009419;28;11551;-90
2022/10/02 08:44:13;;;;;;;;;0.00;0.00;;;;;;;;5024362;28;11542;-89
2022/10/02 08:46:44;;;;;;;;;0.00;0.00;;;;;;;;5020643;28;11565;-91
2022/10/02 08:49:24;;;;;;;;;0.00;0.00;;;;;;;;5007387;28;11527;-90
2022/10/02 08:52:01;;;;;;;;;0.00;0.00;;;;;;;;5023183;28;11495;-91
2022/10/02 08:54:37;;;;;;;;;0.00;0.00;;;;;;;;5025186;28;11506;-92
2022/10/02 08:57:20;;;;;;;;;0.00;0.00;;;;;;;;5022013;28;11507;-91
2022/10/02 08:59:46;;;;;;;;;0.00;0.00;;;;;;;;5017876;28;11544;-92
2022/10/02 09:02:11;;;;;;;;;0.00;0.00;;;;;;;;5019422;28;11516;-89
2022/10/02 09:04:59;;;;;;;;;0.00;0.00;;;;;;;;5010753;28;8894;-90
2022/10/02 09:07:28;;;;;;;;;0.00;0.00;;;;;;;;5027664;28;10428;-92
2022/10/02 09:09:53;;;;;;;;;0.00;0.00;;;;;;;;5027782;28;12360;-91
2022/10/02 09:12:30;;;;;;;;;0.00;0.00;;;;;;;;5005187;28;11574;-91
2022/10/02 09:15:05;;;;;;;;;0.00;0.00;;;;;;;;5007736;28;8838;-89
2022/10/02 09:17:39;;;;;;;;;0.00;0.00;;;;;;;;5027358;28;11515;-90
2022/10/02 09:20:19;;;;;;;;;0.00;0.00;;;;;;;;5012156;28;11536;-90
2022/10/02 09:23:00;;;;;;;;;0.00;0.00;;;;;;;;5010272;28;11543;-91
2022/10/02 09:25:36;;;;;;;;;0.00;0.00;;;;;;;;5027059;28;11503;-91
2022/10/02 09:28:20;;;;;;;;;0.00;0.00;;;;;;;;5029332;28;11541;-89
2022/10/02 09:31:02;;;;;;;;;0.00;0.00;;;;;;;;5023741;28;11662;-88
2022/10/02 09:33:40;;;;;;;;;0.00;0.00;;;;;;;;5031975;28;12501;-90
2022/10/02 09:36:05;;;;;;;;;0.00;0.00;;;;;;;;5009981;28;12400;-90
2022/10/02 09:38:46;;;;;;;;;0.00;0.00;;;;;;;;5006346;28;11695;-90
2022/10/02 09:41:26;;;;;;;;;0.00;0.00;;;;;;;;5001651;28;8835;-91
2022/10/02 09:44:02;;;;;;;;;0.00;0.00;;;;;;;;5003282;28;12314;-90
2022/10/02 09:46:34;;;;;;;;;0.00;0.00;;;;;;;;5003259;28;11505;-90
2022/10/02 09:49:18;;;;;;;;;0.00;0.00;;;;;;;;5006341;28;11497;-92
2022/10/02 09:52:02;;;;;;;;;0.00;0.00;;;;;;;;5007075;28;11521;-93
2022/10/02 09:54:42;;;;;;;;;0.00;0.00;;;;;;;;4995247;28;11521;-90
2022/10/02 09:57:10;;;;;;;;;0.00;0.00;;;;;;;;4997754;28;11505;-90
2022/10/02 09:59:57;;;;;;;;;0.00;0.00;;;;;;;;4996215;28;11523;-90
2022/10/02 10:02:22;;;;;;;;;0.00;0.00;;;;;;;;5016763;28;11529;-90
2022/10/02 10:04:47;;;;;;;;;0.00;0.00;;;;;;;;5005055;28;11540;-90
2022/10/02 10:07:15;;;;;;;;;0.00;0.00;;;;;;;;5007158;28;8824;-91
2022/10/02 10:10:08;;;;;;;;;0.00;0.00;;;;;;;;5009058;28;8824;-91
2022/10/02 10:12:37;;;;;;;;;0.00;0.00;;;;;;;;5006098;28;11529;-91
2022/10/02 10:15:18;;;;;;;;;0.00;0.00;;;;;;;;4998855;28;11734;-90
2022/10/02 10:18:03;;;;;;;;;0.00;0.00;;;;;;;;5010221;28;11528;-88
2022/10/02 10:20:35;;;;;;;;;0.00;0.00;;;;;;;;5005448;28;11636;-91
2022/10/02 10:23:01;;;;;;;;;0.00;0.00;;;;;;;;5003621;28;11618;-91
2022/10/02 10:25:29;;;;;;;;;0.25;0.25;;;;;;;;5006484;28;11685;-91
2022/10/02 10:27:54;;;;;;;;;0.00;0.00;;;;;;;;5002556;28;8769;-89
2022/10/02 10:30:38;;;;;;;;;0.00;0.00;;;;;;;;5001711;28;11533;-90
2022/10/02 10:33:07;;;;;;;;;0.00;0.00;;;;;;;;5007619;28;9922;-90
2022/10/02 10:35:52;;;;;;;;;0.00;0.00;;;;;;;;5008600;28;11438;-91
2022/10/02 10:38:38;;;;;;;;;0.00;0.00;;;;;;;;4991024;28;12175;-91
2022/10/02 10:41:15;;;;;;;;;0.00;0.00;;;;;;;;5001462;28;11550;-90
2022/10/02 10:43:59;;;;;;;;;0.00;0.00;;;;;;;;4992620;28;11598;-91
2022/10/02 10:46:27;;;;;;;;;0.00;0.00;;;;;;;;4989806;28;11491;-92
2022/10/02 10:49:11;;;;;;;;;0.00;0.00;;;;;;;;4989903;28;11450;-94
2022/10/02 10:51:36;;;;;;;;;0.00;0.00;;;;;;;;5006157;28;11466;-93
2022/10/02 10:54:21;;;;;;;;;0.00;0.00;;;;;;;;5009709;28;11525;-87
2022/10/02 10:56:55;;;;;;;;;0.00;0.00;;;;;;;;4986636;28;8767;-94
2022/10/02 10:59:29;;;;;;;;;0.00;0.00;;;;;;;;4971940;28;11498;-90
2022/10/02 11:01:54;;;;;;;;;0.00;0.00;;;;;;;;4988365;28;11529;-91
2022/10/02 11:04:34;;;;;;;;;0.00;0.00;;;;;;;;4975086;28;11482;-91
2022/10/02 11:07:06;;;;;;;;;0.00;0.00;;;;;;;;4972694;28;8899;-89
2022/10/02 11:09:48;;;;;;;;;0.00;0.00;;;;;;;;4994403;28;11582;-90
2022/10/02 11:12:13;;;;;;;;;0.00;0.00;;;;;;;;5004321;28;11544;-90
2022/10/02 11:14:46;;;;;;;;;0.00;0.00;;;;;;;;4999401;28;11549;-91
2022/10/02 11:17:20;;;;;;;;;0.00;0.00;;;;;;;;5013092;28;8804;-96
2022/10/02 11:20:03;;;;;;;;;0.00;0.00;;;;;;;;5012900;28;11519;-95
2022/10/02 11:22:38;;;;;;;;;0.00;0.00;;;;;;;;4998914;28;11540;-94
2022/10/02 11:25:13;;;;;;;;;0.00;0.00;;;;;;;;5010749;28;11438;-94
2022/10/02 11:27:38;;;;;;;;;0.00;0.00;;;;;;;;5006671;28;11522;-91
2022/10/02 11:30:23;;;;;;;;;0.00;0.00;;;;;;;;5001533;28;11546;-95
2022/10/02 11:32:55;;;;;;;;;0.00;0.00;;;;;;;;5001320;28;8823;-96
2022/10/02 11:35:23;;;;;;;;;0.00;0.00;;;;;;;;5572280;23;11434;-96
2022/10/02 11:38:00;;;;;;;;;0.00;0.00;;;;;;;;5029222;28;11494;-93
2022/10/02 11:40:44;;;;;;;;;0.00;0.00;;;;;;;;5017041;28;11496;-94
2022/10/02 11:43:23;;;;;;;;;0.00;0.00;;;;;;;;5035299;28;11501;-96
2022/10/02 11:46:07;;;;;;;;;0.00;0.00;;;;;;;;5003927;28;11517;-92
2022/10/02 11:48:37;;;;;;;;;0.00;0.00;;;;;;;;5007808;28;11521;-88
2022/10/02 11:51:09;;;;;;;;;0.00;0.00;;;;;;;;5015382;28;11489;-90
2022/10/02 11:54:00;;;;;;;;;0.00;0.00;;;;;;;;5009957;28;11506;-90
2022/10/02 11:56:31;;;;;;;;;0.00;0.00;;;;;;;;5024489;28;11528;-89
2022/10/02 11:59:21;;;;;;;;;0.00;0.00;;;;;;;;5008062;28;11636;-89
2022/10/02 12:01:46;;;;;;;;;0.00;0.00;;;;;;;;5025994;28;11489;-90
2022/10/02 12:04:30;;;;;;;;;0.00;0.00;;;;;;;;4996519;28;11501;-89
2022/10/02 12:07:14;;;;;;;;;0.00;0.00;;;;;;;;5001937;28;9463;-89
2022/10/02 12:09:39;;;;;;;;;0.00;0.00;;;;;;;;5000054;28;11521;-88
2022/10/02 12:12:19;;;;;;;;;0.00;0.00;;;;;;;;5011181;28;11595;-89
2022/10/02 12:14:54;;;;;;;;;0.00;0.00;;;;;;;;5010397;28;9590;-89
2022/10/02 12:17:43;;;;;;;;;0.00;0.00;;;;;;;;5013333;28;11530;-90
2022/10/02 12:29:11;;;;;;;;;0.00;0.00;;;;;;;;5008212;28;11490;-89
2022/10/02 12:31:55;;;;;;;;;0.00;0.00;;;;;;;;5002696;28;11532;-90
2022/10/02 12:34:23;;;;;;;;;0.00;0.00;;;;;;;;5011158;28;11518;-89
2022/10/02 12:37:00;;;;;;;;;0.00;0.00;;;;;;;;5026003;28;11586;-89
2022/10/02 12:39:36;;;;;;;;;0.00;0.00;;;;;;;;5023936;28;12764;-91
2022/10/02 12:42:20;;;;;;;;;0.00;0.00;;;;;;;;5021849;28;11575;-91
2022/10/02 12:44:46;;;;;;;;;0.00;0.00;;;;;;;;5013055;28;11572;-91
2022/10/02 12:47:14;;;;;;;;;0.00;0.00;;;;;;;;5003479;28;11539;-90
2022/10/02 12:49:58;;;;;;;;;0.00;0.00;;;;;;;;5004388;28;11616;-92
2022/10/02 12:52:42;;;;;;;;;0.00;0.00;;;;;;;;5017723;28;11553;-93
2022/10/02 12:55:07;;;;;;;;;0.00;0.00;;;;;;;;5022122;28;11574;-89
2022/10/02 12:57:51;;;;;;;;;0.00;0.00;;;;;;;;5017122;28;11535;-91
2022/10/02 13:00:16;;;;;;;;;0.00;0.00;;;;;;;;5022862;28;8810;-89
2022/10/02 13:03:02;;;;;;;;;0.00;0.00;;;;;;;;5023972;28;11515;-89
2022/10/02 13:05:33;;;;;;;;;0.00;0.00;;;;;;;;5007037;28;8770;-91
2022/10/02 13:07:58;;;;;;;;;0.00;0.00;;;;;;;;5020670;28;11601;-91
2022/10/02 13:10:29;;;;;;;;;0.00;0.00;;;;;;;;5004095;28;11535;-90
2022/10/02 13:13:01;;;;;;;;;0.00;0.00;;;;;;;;5024024;28;9562;-88
2022/10/02 13:15:42;;;;;;;;;0.00;0.00;;;;;;;;5020695;28;12006;-89
2022/10/02 13:18:26;;;;;;;;;0.00;0.00;;;;;;;;5004296;28;12274;-89
2022/10/02 13:21:01;;;;;;;;;0.00;0.00;;;;;;;;5000916;28;11602;-89
2022/10/02 13:23:32;;;;;;;;;0.00;0.00;;;;;;;;5009645;28;11575;-89
2022/10/02 13:26:12;;;;;;;;;0.00;0.00;;;;;;;;5005514;28;11523;-90
2022/10/02 13:28:46;;;;;;;;;0.00;0.00;;;;;;;;5017431;28;11610;-89
2022/10/02 13:31:14;;;;;;;;;0.00;0.00;;;;;;;;5011809;28;11519;-88
2022/10/02 13:34:00;;;;;;;;;0.00;0.00;;;;;;;;4999723;28;11527;-90
2022/10/02 13:36:25;;;;;;;;;0.00;0.00;;;;;;;;5014140;28;11515;-89
2022/10/02 13:39:03;;;;;;;;;0.00;0.00;;;;;;;;5023630;28;12291;-89
2022/10/02 13:41:39;;;;;;;;;0.00;0.00;;;;;;;;5002222;28;8831;-89
2022/10/02 13:44:05;;;;;;;;;0.00;0.00;;;;;;;;5003900;28;11522;-89
2022/10/02 13:46:31;;;;;;;;;0.00;0.00;;;;;;;;5009113;28;12261;-91
2022/10/02 13:49:04;;;;;;;;;0.00;0.00;;;;;;;;5003053;28;12286;-90
2022/10/02 13:51:32;;;;;;;;;0.00;0.00;;;;;;;;5018978;28;11605;-88
2022/10/02 13:54:06;;;;;;;;;0.00;0.00;;;;;;;;5026676;28;12474;-88
2022/10/02 13:56:53;;;;;;;;;0.00;0.00;;;;;;;;5023284;28;11500;-89
2022/10/02 13:59:21;;;;;;;;;0.00;0.00;;;;;;;;5019228;28;11519;-94
2022/10/02 14:01:48;;;;;;;;;0.00;0.00;;;;;;;;5007213;28;11560;-91
2022/10/02 14:04:22;;;;;;;;;0.00;0.00;;;;;;;;5018879;28;11543;-90
2022/10/02 14:07:13;;;;;;;;;0.00;0.00;;;;;;;;5024492;28;11503;-90
2022/10/02 14:10:11;;;;;;;;;0.00;0.00;;;;;;;;4945849;28;11471;-89
2022/10/02 14:12:59;;;;;;;;;0.00;0.00;;;;;;;;4873250;29;11585;-90
2022/10/02 14:15:37;;;;;;;;;0.00;0.00;;;;;;;;4883010;29;11595;-90
2022/10/02 14:18:16;;;;;;;;;0.00;0.00;;;;;;;;4883610;29;11555;-89
2022/10/02 14:20:47;;;;;;;;;0.00;0.00;;;;;;;;4883855;29;11605;-89
2022/10/02 14:23:13;;;;;;;;;0.00;0.00;;;;;;;;4872472;29;11658;-89
2022/10/02 14:25:49;;;;;;;;;0.00;0.00;;;;;;;;4886916;29;11578;-90
2022/10/02 14:28:32;;;;;;;;;0.00;0.00;;;;;;;;4879510;29;9463;-88
2022/10/02 14:31:06;;;;;;;;;0.00;0.00;;;;;;;;4878425;29;11632;-91
2022/10/02 14:33:31;;;;;;;;;0.00;0.00;;;;;;;;4882381;29;11586;-88
2022/10/02 14:36:06;;;;;;;;;0.00;0.00;;;;;;;;4874066;29;11736;-89
2022/10/02 14:38:40;;;;;;;;;21.00;21.00;;;;;;;;4876421;29;10035;-92
2022/10/02 14:41:17;;;;;;;;;0.00;0.00;;;;;;;;4873344;29;8820;-89
2022/10/02 14:44:08;;;;;;;;;0.00;0.00;;;;;;;;4869441;29;11594;-89
2022/10/02 14:46:52;;;;;;;;;0.00;0.00;;;;;;;;4906807;28;11519;-90
2022/10/02 14:49:35;;;;;;;;;0.00;0.00;;;;;;;;5002013;28;11508;-90
2022/10/02 14:52:16;;;;;;;;;0.00;0.00;;;;;;;;5018172;28;11531;-90
2022/10/02 14:54:54;;;;;;;;;0.00;0.00;;;;;;;;5023363;28;11580;-90
2022/10/02 14:57:19;;;;;;;;;0.00;0.00;;;;;;;;5009297;28;11565;-90
2022/10/02 15:00:00;;;;;;;;;0.00;0.00;;;;;;;;5028373;28;11549;-90
2022/10/02 15:02:33;;;;;;;;;0.00;0.00;;;;;;;;5021583;28;8822;-88
2022/10/02 15:05:11;;;;;;;;;0.00;0.00;;;;;;;;5022764;28;11514;-86
2022/10/02 15:07:38;;;;;;;;;0.00;0.00;;;;;;;;5009081;28;11586;-88
2022/10/02 15:10:17;;;;;;;;;0.00;0.00;;;;;;;;5021357;28;11527;-88
2022/10/02 15:12:53;;;;;;;;;0.00;0.00;;;;;;;;5022550;28;11539;-89
2022/10/02 15:15:34;;;;;;;;;0.00;0.00;;;;;;;;5026752;28;11495;-89
2022/10/02 15:18:18;;;;;;;;;0.00;0.00;;;;;;;;5009639;28;11522;-89
2022/10/02 15:20:58;;;;;;;;;0.00;0.00;;;;;;;;5022916;28;11611;-88
2022/10/02 15:23:40;;;;;;;;;0.00;0.00;;;;;;;;5021936;28;11543;-87
2022/10/02 15:26:29;;;;;;;;;0.00;0.00;;;;;;;;5005925;28;11515;-88
2022/10/02 15:29:20;;;;;;;;;0.00;0.00;;;;;;;;5005117;28;12342;-89
2022/10/02 15:32:04;;;;;;;;;0.00;0.00;;;;;;;;5013041;28;11531;-89
2022/10/02 15:34:45;;;;;;;;;0.00;0.00;;;;;;;;4993196;28;11624;-89
2022/10/02 15:37:10;;;;;;;;;0.00;0.00;;;;;;;;5004861;28;12455;-90
2022/10/02 15:39:53;;;;;;;;;0.00;0.00;;;;;;;;5005130;28;11638;-89
2022/10/02 15:42:42;;;;;;;;;0.00;0.00;;;;;;;;5000762;28;9312;-89
2022/10/02 15:45:08;;;;;;;;;0.00;0.00;;;;;;;;5021053;28;11520;-88
2022/10/02 15:47:37;;;;;;;;;0.00;0.00;;;;;;;;5011927;28;11566;-89
2022/10/02 15:50:09;;;;;;;;;0.00;0.00;;;;;;;;5010707;28;8819;-89
2022/10/02 15:52:40;;;;;;;;;0.00;0.00;;;;;;;;4996585;28;11671;-90
2022/10/02 15:55:17;;;;;;;;;0.00;0.00;;;;;;;;5007523;28;11536;-90
2022/10/02 15:57:42;;;;;;;;;0.00;0.00;;;;;;;;5009973;28;11661;-90
2022/10/02 16:00:08;;;;;;;;;0.00;0.00;;;;;;;;5023642;28;11614;-89
2022/10/02 16:02:40;;;;;;;;;0.00;0.00;;;;;;;;5022543;28;9457;-91
2022/10/02 16:05:23;;;;;;;;;0.00;0.00;;;;;;;;4999365;28;8830;-90
2022/10/02 16:07:57;;;;;;;;;0.00;0.00;;;;;;;;5020568;28;11594;-89
2022/10/02 16:10:24;;;;;;;;;0.00;0.00;;;;;;;;5026128;28;11512;-89
2022/10/02 16:12:53;;;;;;;;;0.00;0.00;;;;;;;;5020046;28;11579;-88
2022/10/02 16:15:29;;;;;;;;;0.00;0.00;;;;;;;;5013160;28;11519;-90
2022/10/02 16:17:57;;;;;;;;;0.00;0.00;;;;;;;;5013342;28;11503;-90
2022/10/02 16:20:41;;;;;;;;;0.00;0.00;;;;;;;;5020856;28;11562;-88
2022/10/02 16:23:26;;;;;;;;;0.00;0.00;;;;;;;;5027200;28;11530;-89
2022/10/02 16:26:00;;;;;;;;;0.00;0.00;;;;;;;;4934739;28;11445;-89
2022/10/02 16:28:30;;;;;;;;;0.00;0.00;;;;;;;;4934970;28;11444;-90
2022/10/02 16:31:16;;;;;;;;;0.00;0.00;;;;;;;;4935974;28;11431;-90
2022/10/02 16:33:50;;;;;;;;;0.00;0.00;;;;;;;;4937397;28;11553;-89
2022/10/02 16:36:28;;;;;;;;;0.00;0.00;;;;;;;;4934630;28;11614;-88
2022/10/02 16:39:14;;;;;;;;;0.00;0.00;;;;;;;;4941461;28;11465;-88
2022/10/02 16:41:57;;;;;;;;;0.00;0.00;;;;;;;;4932280;28;11557;-88
2022/10/02 16:44:28;;;;;;;;;0.00;0.00;;;;;;;;4929227;28;11546;-89
2022/10/02 16:46:59;;;;;;;;;0.00;0.00;;;;;;;;4932950;28;11659;-88
2022/10/02 16:49:32;;;;;;;;;0.00;0.00;;;;;;;;4934913;28;11568;-88
2022/10/02 16:52:05;;;;;;;;;0.00;0.00;;;;;;;;4920311;28;11592;-88
2022/10/02 16:54:48;;;;;;;;;0.00;0.00;;;;;;;;4930443;28;11711;-88
2022/10/02 16:57:16;;;;;;;;;0.00;0.00;;;;;;;;4917020;29;11577;-88
2022/10/02 17:00:00;;;;;;;;;0.00;0.00;;;;;;;;4932765;28;11550;-88
2022/10/02 17:02:38;;;;;;;;;0.00;0.00;;;;;;;;4927906;28;11468;-89
2022/10/02 17:05:15;;;;;;;;;0.00;0.00;;;;;;;;4965738;28;11484;-89
2022/10/02 17:07:52;;;;;;;;;0.00;0.00;;;;;;;;4973632;28;11492;-88
2022/10/02 17:10:43;;;;;;;;;0.00;0.00;;;;;;;;4966513;28;11471;-88
2022/10/02 17:13:10;;;;;;;;;0.00;0.00;;;;;;;;4971960;28;11522;-89
2022/10/02 17:15:38;;;;;;;;;0.00;0.00;;;;;;;;4988702;28;12225;-89
2022/10/02 17:18:12;;;;;;;;;0.00;0.00;;;;;;;;4980571;28;11495;-89
2022/10/02 17:20:46;;;;;;;;;0.00;0.00;;;;;;;;4983877;28;11557;-88
2022/10/02 17:23:12;;;;;;;;;0.00;0.00;;;;;;;;4977803;28;11475;-89
2022/10/02 17:25:49;;;;;;;;;0.00;0.00;;;;;;;;4987595;28;11568;-89
2022/10/02 17:28:24;;;;;;;;;0.00;0.00;;;;;;;;4973503;28;8834;-89
2022/10/02 17:30:55;;;;;;;;;0.00;0.00;;;;;;;;4979978;28;11754;-89
2022/10/02 17:33:21;;;;;;;;;0.00;0.00;;;;;;;;4976287;28;11650;-88
2022/10/02 17:35:53;;;;;;;;;0.00;0.00;;;;;;;;4982379;28;13055;-88
2022/10/02 17:38:23;;;;;;;;;0.00;0.00;;;;;;;;4987518;28;11521;-88
2022/10/02 17:41:04;;;;;;;;;0.00;0.00;;;;;;;;4986414;28;11498;-88
2022/10/02 17:43:34;;;;;;;;;0.00;0.00;;;;;;;;4975602;28;12548;-87
2022/10/02 17:46:17;;;;;;;;;0.00;0.00;;;;;;;;4976889;28;11503;-87
2022/10/02 17:48:49;;;;;;;;;0.00;0.00;;;;;;;;4979753;28;11509;-89
2022/10/02 17:51:28;;;;;;;;;0.00;0.00;;;;;;;;5026470;28;11464;-88
2022/10/02 17:57:09;;;;;;;;;0.00;0.00;;;;;;;;4940472;28;12468;-89
2022/10/02 17:59:44;;;;;;;;;0.00;0.00;;;;;;;;4925133;28;11489;-89
2022/10/02 18:02:16;;;;;;;;;0.00;0.00;;;;;;;;4937421;28;11585;-90
2022/10/02 18:04:47;;;;;;;;;0.00;0.00;;;;;;;;4928832;28;11632;-88
2022/10/02 18:07:31;;;;;;;;;0.00;0.00;;;;;;;;4930637;28;11513;-87
2022/10/02 18:10:13;;;;;;;;;0.00;0.00;;;;;;;;4937163;28;11568;-88
2022/10/02 18:12:38;;;;;;;;;0.00;0.00;;;;;;;;4921641;29;11526;-87
2022/10/02 18:15:04;;;;;;;;;0.00;0.00;;;;;;;;4938594;28;11521;-88
2022/10/02 18:17:55;;;;;;;;;0.00;0.00;;;;;;;;4924713;28;8910;-88
2022/10/02 18:20:34;;;;;;;;;0.00;0.00;;;;;;;;4946506;28;8814;-88
2022/10/02 18:23:05;;;;;;;;;0.00;0.00;;;;;;;;4921544;28;11555;-87
2022/10/02 18:25:30;;;;;;;;;0.00;0.00;;;;;;;;4933018;28;11473;-87
2022/10/02 18:28:07;;;;;;;;;0.00;0.00;;;;;;;;4934557;28;12312;-89
2022/10/02 18:30:38;;;;;;;;;0.00;0.00;;;;;;;;4939073;28;9494;-87
2022/10/02 18:33:16;;;;;;;;;0.00;0.00;;;;;;;;4987390;28;11610;-88
2022/10/02 18:35:58;;;;;;;;;0.00;0.00;;;;;;;;5022845;28;11632;-89
2022/10/02 18:38:24;;;;;;;;;0.00;0.00;;;;;;;;5022920;28;11495;-89
2022/10/02 18:41:04;;;;;;;;;0.00;0.00;;;;;;;;5013175;28;11535;-89
2022/10/02 18:43:33;;;;;;;;;0.00;0.00;;;;;;;;5017813;28;9553;-88
2022/10/02 18:46:05;;;;;;;;;0.00;0.00;;;;;;;;5016126;28;11520;-88
2022/10/02 18:48:33;;;;;;;;;0.00;0.00;;;;;;;;5025114;28;11520;-88
2022/10/02 18:51:20;;;;;;;;;0.00;0.00;;;;;;;;5004243;28;11558;-88
2022/10/02 18:53:52;;;;;;;;;0.00;0.00;;;;;;;;5026186;28;11525;-89
2022/10/02 18:56:24;;;;;;;;;0.00;0.00;;;;;;;;5023942;28;11556;-90
2022/10/02 18:59:08;;;;;;;;;0.00;0.00;;;;;;;;5023739;28;11590;-90
2022/10/02 19:01:46;;;;;;;;;0.00;0.00;;;;;;;;5031000;28;11507;-89
2022/10/02 19:04:27;;;;;;;;;0.00;0.00;;;;;;;;5004288;28;11515;-90
2022/10/02 19:06:59;;;;;;;;;0.00;0.00;;;;;;;;5021136;28;11483;-90
2022/10/02 19:09:26;;;;;;;;;0.00;0.00;;;;;;;;5029307;28;11606;-90
2022/10/02 19:11:55;;;;;;;;;0.00;0.00;;;;;;;;5018730;28;11609;-88
2022/10/02 19:14:26;;;;;;;;;0.00;0.00;;;;;;;;5003132;28;11531;-87
2022/10/02 19:16:57;;;;;;;;;0.00;0.00;;;;;;;;5024446;28;11531;-88
2022/10/02 19:19:25;;;;;;;;;0.00;0.00;;;;;;;;5015595;28;11573;-89
2022/10/02 19:21:52;;;;;;;;;0.00;0.00;;;;;;;;5023617;28;11601;-88
2022/10/02 19:24:22;;;;;;;;;0.00;0.00;;;;;;;;5022409;28;11534;-89
2022/10/02 19:26:53;;;;;;;;;0.00;0.00;;;;;;;;5011408;28;12450;-88
2022/10/02 19:29:27;;;;;;;;;0.00;0.00;;;;;;;;5010506;28;11705;-89
2022/10/02 19:31:55;;;;;;;;;0.00;0.00;;;;;;;;5016315;28;11539;-92
2022/10/02 19:34:26;;;;;;;;;0.00;0.00;;;;;;;;5035747;28;11559;-90
2022/10/02 19:36:53;;;;;;;;;0.00;0.00;;;;;;;;5043385;28;11487;-91
2022/10/02 19:39:30;;;;;;;;;0.00;0.00;;;;;;;;5012084;28;11535;-91
2022/10/02 19:41:58;;;;;;;;;0.00;0.00;;;;;;;;5021592;28;11531;-92
2022/10/02 19:44:36;;;;;;;;;0.00;0.00;;;;;;;;5041411;28;11487;-91
2022/10/02 19:47:10;;;;;;;;;0.00;0.00;;;;;;;;5025542;28;11569;-93
2022/10/02 19:49:38;;;;;;;;;0.00;0.00;;;;;;;;5047213;28;11471;-92
2022/10/02 19:52:13;;;;;;;;;0.00;0.00;;;;;;;;5022831;28;11528;-93
2022/10/02 19:54:39;;;;;;;;;0.00;0.00;;;;;;;;5031064;28;11498;-93
2022/10/02 19:57:13;;;;;;;;;0.00;0.00;;;;;;;;5019235;28;11563;-95
2022/10/02 19:59:43;;;;;;;;;0.00;0.00;;;;;;;;5016988;28;11513;-95
2022/10/02 20:02:13;;;;;;;;;0.00;0.00;;;;;;;;5006697;28;11568;-95
2022/10/02 20:04:38;;;;;;;;;0.00;0.00;;;;;;;;5015654;28;11686;-94
2022/10/02 20:07:04;;;;;;;;;0.00;0.00;;;;;;;;5024999;28;12436;-94
2022/10/02 20:09:34;;;;;;;;;0.00;0.00;;;;;;;;5042276;28;8850;-94
2022/10/02 20:12:03;;;;;;;;;0.00;0.00;;;;;;;;5015743;28;8845;-94
2022/10/02 20:14:34;;;;;;;;;0.00;0.00;;;;;;;;5034923;28;11487;-94
2022/10/02 20:17:08;;;;;;;;;0.00;0.00;;;;;;;;5003947;28;11534;-94
2022/10/02 20:19:47;;;;;;;;;0.00;0.00;;;;;;;;5002243;28;11519;-93
2022/10/02 20:22:31;;;;;;;;;0.00;0.00;;;;;;;;5021583;28;11625;-94
2022/10/02 20:24:59;;;;;;;;;0.00;0.00;;;;;;;;5014879;28;11645;-95
2022/10/02 20:27:27;;;;;;;;;0.00;0.00;;;;;;;;4997449;28;11520;-94
2022/10/02 20:29:57;;;;;;;;;0.00;0.00;;;;;;;;5014039;28;11521;-94
2022/10/02 20:32:42;;;;;;;;;10.00;10.00;;;;;;;;5005773;28;11557;-94
2022/10/02 20:35:14;;;;;;;;;0.00;0.00;;;;;;;;5031713;28;8878;-94
2022/10/02 20:37:41;;;;;;;;;0.00;0.00;;;;;;;;5020751;28;11448;-94
2022/10/02 20:40:11;;;;;;;;;0.00;0.00;;;;;;;;5016069;28;11534;-94
2022/10/02 20:42:46;;;;;;;;;0.00;0.00;;;;;;;;5025313;28;11483;-94
